Time;durP1;ratioP1;P1;durP2;ratioP2;P2;SDS_P1;SDS_P2;PMS_P1;PMS_P2;Temp;Humidity;BMP_temperature;BMP_pressure;BME280_temperature;BME280_humidity;BME280_pressure;Samples;Min_cycle;Max_cycle;Signal;HPM_P1;HPM_P2
2022/01/12 00:01:32;;;;;;;16.92;9.88;;;0.30;99.90;;;;;;4995553;28;20468;-57
2022/01/12 00:03:57;;;;;;;19.23;9.38;;;0.20;99.90;;;;;;4993381;28;20113;-58
2022/01/12 00:06:24;;;;;;;20.75;8.70;;;0.30;99.90;;;;;;4994916;28;20057;-58
2022/01/12 00:08:50;;;;;;;13.30;8.02;;;0.30;99.90;;;;;;4995101;28;20038;-58
2022/01/12 00:11:17;;;;;;;18.00;9.38;;;0.30;99.90;;;;;;4994327;28;20026;-59
2022/01/12 00:13:43;;;;;;;15.77;9.20;;;0.30;99.90;;;;;;4991885;28;20030;-60
2022/01/12 00:16:09;;;;;;;23.33;9.02;;;0.40;99.90;;;;;;4994268;28;20408;-59
2022/01/12 00:18:34;;;;;;;18.52;9.75;;;0.40;99.90;;;;;;4993675;28;20488;-59
2022/01/12 00:21:01;;;;;;;15.63;8.45;;;0.40;99.90;;;;;;4998487;28;20033;-59
2022/01/12 00:23:27;;;;;;;17.63;8.57;;;0.40;99.90;;;;;;4996807;28;20038;-59
2022/01/12 00:26:02;;;;;;;16.80;9.25;;;0.50;99.90;;;;;;4997763;28;20411;-56
2022/01/12 00:34:05;;;;;;;16.25;8.40;;;0.50;99.90;;;;;;5005595;28;20032;-56
2022/01/12 00:36:31;;;;;;;15.40;7.38;;;0.60;99.90;;;;;;4993554;28;20721;-58
2022/01/12 00:38:58;;;;;;;14.65;8.25;;;0.60;99.90;;;;;;5027568;28;20100;-57
2022/01/12 00:41:23;;;;;;;15.52;7.97;;;0.60;99.90;;;;;;5033759;28;20038;-59
2022/01/12 00:43:57;;;;;;;15.65;8.48;;;0.70;99.90;;;;;;5030394;28;20112;-57
2022/01/12 00:46:23;;;;;;;17.10;8.47;;;0.70;99.90;;;;;;5011571;28;20045;-58
2022/01/12 00:48:49;;;;;;;15.02;8.07;;;0.70;99.90;;;;;;5027943;28;20067;-57
2022/01/12 00:51:16;;;;;;;15.52;7.50;;;0.70;99.90;;;;;;5030919;28;20025;-59
2022/01/12 00:53:41;;;;;;;15.93;8.52;;;0.70;99.90;;;;;;5031315;28;20562;-57
2022/01/12 00:56:07;;;;;;;14.43;8.02;;;0.70;99.90;;;;;;5035942;28;20101;-59
2022/01/12 00:58:36;;;;;;;14.27;7.88;;;0.70;99.90;;;;;;5037778;28;20049;-58
2022/01/12 01:01:03;;;;;;;16.88;7.65;;;0.70;99.90;;;;;;5032609;28;20398;-59
2022/01/12 01:03:30;;;;;;;16.35;8.13;;;0.70;99.90;;;;;;5031827;28;20041;-58
2022/01/12 01:05:56;;;;;;;16.10;8.63;;;0.70;99.90;;;;;;5032670;28;20278;-59
2022/01/12 01:08:22;;;;;;;15.13;8.05;;;0.70;99.90;;;;;;5032465;28;20491;-58
2022/01/12 01:10:51;;;;;;;15.50;7.28;;;0.70;99.90;;;;;;5033165;28;20072;-58
2022/01/12 01:13:23;;;;;;;16.77;7.60;;;0.70;99.90;;;;;;5031974;28;20084;-61
2022/01/12 01:26:31;;;;;;;;;;;0.40;99.90;;;;;;5029359;28;20510;-56
2022/01/12 01:28:57;;;;;;;18.60;7.70;;;0.30;99.90;;;;;;5029733;28;19913;-59
2022/01/12 01:31:29;;;;;;;16.25;7.93;;;0.30;99.90;;;;;;5032302;28;20584;-58
2022/01/12 01:33:55;;;;;;;15.65;9.32;;;0.30;99.90;;;;;;5028104;28;21669;-59
2022/01/12 01:36:21;;;;;;;18.85;7.93;;;0.20;99.90;;;;;;5014227;28;20563;-57
2022/01/12 01:38:46;;;;;;;14.18;7.85;;;0.20;99.90;;;;;;5027140;28;20506;-57
2022/01/12 01:41:12;;;;;;;14.40;7.57;;;0.20;99.90;;;;;;5030140;28;20029;-59
2022/01/12 01:44:04;;;;;;;12.40;7.07;;;0.20;99.90;;;;;;5029578;28;20033;-59
2022/01/12 01:54:40;;;;;;;16.67;8.23;;;0.00;99.90;;;;;;5026733;28;20078;-58
2022/01/12 01:57:05;;;;;;;20.52;8.10;;;0.00;99.90;;;;;;5031114;28;20035;-58
2022/01/12 01:59:31;;;;;;;15.63;8.50;;;0.00;99.90;;;;;;5030708;28;20113;-58
2022/01/12 02:01:56;;;;;;;13.65;7.47;;;-0.10;99.90;;;;;;5031001;28;20029;-58
2022/01/12 02:04:22;;;;;;;18.13;8.93;;;-0.10;99.90;;;;;;5029556;28;20046;-58
2022/01/12 02:06:48;;;;;;;15.60;8.52;;;-0.10;99.90;;;;;;5030520;28;20120;-58
2022/01/12 02:09:13;;;;;;;18.23;9.38;;;-0.10;99.90;;;;;;5030418;28;20040;-58
2022/01/12 02:11:39;;;;;;;16.58;8.50;;;0.00;99.90;;;;;;5031132;28;20039;-57
2022/01/12 02:14:05;;;;;;;13.52;8.40;;;0.00;99.90;;;;;;5030162;28;20029;-58
2022/01/12 02:16:39;;;;;;;16.85;8.32;;;0.00;99.90;;;;;;5030297;28;20112;-58
2022/01/12 02:19:16;;;;;;;15.60;7.90;;;0.00;99.90;;;;;;5031125;28;20029;-57
2022/01/12 02:35:48;;;;;;;18.23;8.18;;;0.10;99.90;;;;;;5030672;28;20087;-58
2022/01/12 02:40:58;;;;;;;17.42;7.85;;;0.20;99.90;;;;;;5019598;28;20104;-58
2022/01/12 02:51:29;;;;;;;12.10;7.38;;;0.40;99.90;;;;;;5022471;28;20025;-57
2022/01/12 02:53:55;;;;;;;13.85;7.47;;;0.50;99.90;;;;;;5022046;28;20033;-58
2022/01/12 02:56:27;;;;;;;15.18;8.32;;;0.50;99.90;;;;;;5017103;28;20021;-58
2022/01/12 02:58:55;;;;;;;15.88;7.78;;;0.60;99.90;;;;;;5017662;28;20116;-58
2022/01/12 03:02:03;;;;;;;14.65;8.55;;;0.60;99.90;;;;;;5012869;28;20061;-58
2022/01/12 03:04:11;;;;;;;18.20;8.35;;;0.60;99.90;;;;;;5028321;28;20040;-57
2022/01/12 03:06:40;;;;;;;17.02;8.82;;;0.60;99.90;;;;;;5029757;28;20091;-58
2022/01/12 03:09:09;;;;;;;18.20;9.10;;;0.60;99.90;;;;;;5029269;28;20112;-58
2022/01/12 03:11:36;;;;;;;15.82;7.97;;;0.50;99.90;;;;;;5023773;28;20116;-57
2022/01/12 03:14:02;;;;;;;19.27;9.13;;;0.50;99.90;;;;;;5028532;28;20458;-57
2022/01/12 03:16:28;;;;;;;20.20;9.05;;;0.50;99.90;;;;;;5025824;28;20113;-59
2022/01/12 03:19:00;;;;;;;18.90;9.18;;;0.50;99.90;;;;;;5028994;28;20427;-58
2022/01/12 03:21:29;;;;;;;16.58;9.27;;;0.50;99.90;;;;;;5029240;28;20030;-58
2022/01/12 03:23:55;;;;;;;15.07;8.55;;;0.50;99.90;;;;;;5029387;28;20032;-58
2022/01/12 03:26:22;;;;;;;16.08;8.57;;;0.50;99.90;;;;;;5026725;28;20025;-57
2022/01/12 03:28:53;;;;;;;15.85;8.55;;;0.50;99.90;;;;;;5029574;28;20217;-58
2022/01/12 03:31:22;;;;;;;15.25;8.43;;;0.50;99.90;;;;;;5026607;28;20045;-59
2022/01/12 03:33:56;;;;;;;11.32;7.50;;;0.50;99.90;;;;;;5026172;28;20025;-59
2022/01/12 03:38:58;;;;;;;15.48;8.13;;;0.50;99.90;;;;;;5030511;28;20033;-58
2022/01/12 03:41:34;;;;;;;16.83;7.57;;;0.50;99.90;;;;;;5028350;28;20034;-58
2022/01/12 03:44:02;;;;;;;13.38;8.27;;;0.50;99.90;;;;;;5027730;28;20133;-58
2022/01/12 03:46:33;;;;;;;14.57;9.13;;;0.50;99.90;;;;;;5025818;28;20045;-58
2022/01/12 03:48:59;;;;;;;16.30;8.48;;;0.50;99.90;;;;;;5028993;28;20487;-58
2022/01/12 03:51:25;;;;;;;17.67;8.23;;;0.50;99.90;;;;;;5027730;28;20047;-57
2022/01/12 03:53:51;;;;;;;16.42;8.13;;;0.50;99.90;;;;;;5029741;28;20032;-59
2022/01/12 03:56:16;;;;;;;18.25;9.25;;;0.50;99.90;;;;;;5028865;28;20029;-58
2022/01/12 03:58:43;;;;;;;15.45;9.00;;;0.50;99.90;;;;;;5029407;28;20128;-58
2022/01/12 04:01:09;;;;;;;15.95;7.85;;;0.50;99.90;;;;;;5028787;28;20038;-57
2022/01/12 04:03:39;;;;;;;13.40;8.10;;;0.50;99.90;;;;;;5029144;28;20029;-58
2022/01/12 04:08:50;;;;;;;13.98;8.30;;;0.60;99.90;;;;;;5023105;28;20098;-58
2022/01/12 04:11:16;;;;;;;15.90;8.45;;;0.60;99.90;;;;;;5028805;28;20045;-58
2022/01/12 04:13:43;;;;;;;15.25;8.50;;;0.60;99.90;;;;;;5029020;28;20494;-58
2022/01/12 04:16:11;;;;;;;17.58;8.55;;;0.60;99.90;;;;;;5026912;28;20033;-57
2022/01/12 04:18:37;;;;;;;15.82;8.95;;;0.60;99.90;;;;;;5024260;28;20029;-57
2022/01/12 04:21:06;;;;;;;16.05;8.07;;;0.70;99.90;;;;;;5032465;28;20541;-58
2022/01/12 04:23:33;;;;;;;14.13;8.40;;;0.70;99.90;;;;;;5032930;28;20049;-60
2022/01/12 04:26:00;;;;;;;15.02;8.70;;;0.70;99.90;;;;;;5028504;28;20093;-57
2022/01/12 04:28:28;;;;;;;18.40;9.02;;;0.80;99.90;;;;;;5032696;28;20034;-58
2022/01/12 04:30:55;;;;;;;16.67;8.00;;;0.80;99.90;;;;;;5021398;28;20426;-57
2022/01/12 04:33:22;;;;;;;13.88;7.47;;;0.90;99.90;;;;;;5030293;28;20030;-55
2022/01/12 04:35:52;;;;;;;13.88;8.23;;;0.90;99.90;;;;;;5030899;28;20730;-57
2022/01/12 04:38:22;;;;;;;14.80;7.82;;;0.90;99.90;;;;;;5033162;28;20953;-58
2022/01/12 04:40:48;;;;;;;16.23;8.88;;;0.90;99.90;;;;;;5031245;28;20065;-58
2022/01/12 04:43:15;;;;;;;14.15;8.32;;;0.90;99.90;;;;;;5031959;28;20082;-57
2022/01/12 04:50:49;;;;;;;15.68;7.78;;;0.90;99.90;;;;;;5032669;28;20033;-58
2022/01/12 04:53:15;;;;;;;18.50;8.32;;;0.90;99.90;;;;;;5032055;28;20547;-57
2022/01/12 04:55:41;;;;;;;13.70;8.15;;;0.90;99.90;;;;;;5031462;28;20029;-57
2022/01/12 04:58:07;;;;;;;17.17;7.60;;;0.90;99.90;;;;;;5029152;28;20033;-57
2022/01/12 05:00:34;;;;;;;14.02;8.02;;;0.90;99.90;;;;;;5031012;28;20034;-58
2022/01/12 05:13:46;;;;;;;22.40;9.40;;;0.90;99.90;;;;;;5031419;28;20060;-58
2022/01/12 05:16:12;;;;;;;14.40;8.60;;;0.90;99.90;;;;;;5030719;28;20017;-58
2022/01/12 05:18:39;;;;;;;14.15;8.40;;;0.90;99.90;;;;;;5032384;28;20036;-59
2022/01/12 05:21:05;;;;;;;13.82;8.35;;;0.90;99.90;;;;;;5030261;28;20030;-58
2022/01/12 05:23:31;;;;;;;17.00;8.90;;;0.90;99.90;;;;;;5031644;28;20639;-58
2022/01/12 05:25:58;;;;;;;13.40;8.13;;;0.90;99.90;;;;;;5029462;28;20048;-59
2022/01/12 05:28:25;;;;;;;15.10;8.77;;;1.00;99.90;;;;;;5024175;28;20033;-59
2022/01/12 05:30:52;;;;;;;18.45;9.05;;;0.90;99.90;;;;;;5028530;28;20112;-58
2022/01/12 05:33:19;;;;;;;15.82;8.75;;;1.00;99.90;;;;;;5019243;28;20029;-59
2022/01/12 05:35:45;;;;;;;14.88;8.68;;;1.00;99.90;;;;;;5027798;28;20113;-57
2022/01/12 05:38:13;;;;;;;14.00;9.02;;;1.00;99.90;;;;;;5031679;28;20017;-57
2022/01/12 05:40:48;;;;;;;15.23;9.00;;;1.00;99.90;;;;;;5030720;28;20060;-54
2022/01/12 05:43:17;;;;;;;18.60;10.23;;;1.00;99.90;;;;;;5031545;28;20034;-58
2022/01/12 05:45:44;;;;;;;15.27;9.18;;;1.00;99.90;;;;;;5024151;28;20022;-54
2022/01/12 05:50:38;;;;;;;17.33;9.50;;;1.10;99.90;;;;;;5031319;28;20064;-57
2022/01/12 05:53:05;;;;;;;20.90;11.05;;;1.00;99.90;;;;;;5030771;28;20661;-58
2022/01/12 05:55:30;;;;;;;19.67;11.27;;;1.10;99.90;;;;;;5030779;28;20499;-58
2022/01/12 05:57:56;;;;;;;15.63;11.25;;;1.10;99.90;;;;;;5030761;28;20036;-58
2022/01/12 06:00:24;;;;;;;17.90;10.93;;;1.10;99.90;;;;;;5030221;28;20029;-59
2022/01/12 06:02:50;;;;;;;21.98;11.77;;;1.10;99.90;;;;;;5030482;28;20053;-58
2022/01/12 06:05:18;;;;;;;23.73;13.13;;;1.10;99.90;;;;;;5030564;28;20057;-57
2022/01/12 06:07:48;;;;;;;16.50;10.65;;;1.20;99.90;;;;;;5030617;28;20041;-57
2022/01/12 06:10:15;;;;;;;25.02;14.88;;;1.10;99.90;;;;;;5009405;28;20052;-58
2022/01/12 06:12:41;;;;;;;24.25;13.70;;;1.10;99.90;;;;;;5037149;28;20485;-57
2022/01/12 06:15:08;;;;;;;22.02;13.23;;;1.10;99.90;;;;;;5024618;28;20037;-58
2022/01/12 06:17:34;;;;;;;20.42;11.27;;;1.10;99.90;;;;;;5029483;28;20671;-58
2022/01/12 06:20:00;;;;;;;18.45;10.70;;;1.10;99.90;;;;;;5028691;28;20025;-57
2022/01/12 06:22:26;;;;;;;21.13;11.35;;;1.10;99.90;;;;;;5029814;28;20060;-58
2022/01/12 06:24:53;;;;;;;16.30;9.40;;;1.10;99.90;;;;;;5029888;28;20053;-58
2022/01/12 06:27:21;;;;;;;16.23;9.48;;;1.10;99.90;;;;;;5030426;28;20033;-59
2022/01/12 06:30:03;;;;;;;19.92;9.18;;;1.10;99.90;;;;;;5028389;28;20487;-59
2022/01/12 06:32:30;;;;;;;15.15;9.10;;;1.00;99.90;;;;;;5030376;28;20045;-58
2022/01/12 06:34:56;;;;;;;20.83;10.68;;;1.00;99.90;;;;;;5029418;28;20026;-59
2022/01/12 06:37:22;;;;;;;17.60;9.23;;;1.00;99.90;;;;;;5020738;28;20041;-57
2022/01/12 06:39:47;;;;;;;18.17;8.73;;;1.00;99.90;;;;;;5029323;28;20048;-58
2022/01/12 06:42:13;;;;;;;16.38;9.07;;;1.00;99.90;;;;;;5028525;28;20044;-57
2022/01/12 06:44:39;;;;;;;19.40;9.55;;;1.00;99.90;;;;;;5027796;28;20048;-58
2022/01/12 06:47:05;;;;;;;17.83;9.65;;;0.90;99.90;;;;;;5027975;28;20034;-58
2022/01/12 06:49:32;;;;;;;16.48;9.10;;;0.90;99.90;;;;;;5027830;28;20064;-57
2022/01/12 06:52:00;;;;;;;20.58;9.43;;;0.80;99.90;;;;;;5020856;28;20025;-58
2022/01/12 06:54:27;;;;;;;17.25;9.48;;;0.80;99.90;;;;;;5028309;28;20030;-59
2022/01/12 06:56:53;;;;;;;23.75;10.45;;;0.90;99.90;;;;;;5029941;28;20035;-57
2022/01/12 06:59:18;;;;;;;26.85;11.35;;;0.90;99.90;;;;;;5028761;28;20037;-58
2022/01/12 07:01:44;;;;;;;17.65;10.52;;;0.90;99.90;;;;;;5028057;28;20033;-59
2022/01/12 07:04:10;;;;;;;16.85;11.07;;;0.90;99.90;;;;;;5028820;28;20025;-58
2022/01/12 07:06:37;;;;;;;15.90;9.18;;;0.90;99.90;;;;;;5029216;28;20099;-59
2022/01/12 07:09:04;;;;;;;16.65;9.05;;;0.90;99.90;;;;;;5029498;28;20037;-58
2022/01/12 07:11:30;;;;;;;21.80;10.68;;;0.90;99.90;;;;;;5028603;28;20033;-59
2022/01/12 07:13:57;;;;;;;20.80;10.70;;;0.90;99.90;;;;;;5028930;28;20147;-58
2022/01/12 07:16:23;;;;;;;20.05;11.48;;;0.90;99.90;;;;;;5009427;28;20104;-58
2022/01/12 07:18:48;;;;;;;19.70;10.98;;;0.90;99.90;;;;;;5027532;28;20034;-59
2022/01/12 07:21:14;;;;;;;18.58;10.43;;;0.90;99.90;;;;;;5029556;28;20103;-59
2022/01/12 07:23:40;;;;;;;19.45;10.30;;;0.90;99.90;;;;;;5029702;28;20033;-58
2022/01/12 07:26:07;;;;;;;21.13;10.38;;;0.90;99.90;;;;;;5028232;28;20036;-58
2022/01/12 07:28:33;;;;;;;23.58;11.13;;;0.90;99.90;;;;;;5029819;28;20041;-58
2022/01/12 07:30:58;;;;;;;21.35;11.13;;;0.80;99.90;;;;;;5023549;28;20037;-58
2022/01/12 07:33:25;;;;;;;20.38;11.05;;;0.90;99.90;;;;;;5029526;28;20037;-59
2022/01/12 07:35:52;;;;;;;23.73;11.90;;;0.90;99.90;;;;;;5030106;28;20437;-58
2022/01/12 07:38:17;;;;;;;19.77;11.00;;;0.90;99.90;;;;;;5027790;28;20083;-59
2022/01/12 07:40:43;;;;;;;20.80;11.30;;;1.00;99.90;;;;;;5028250;28;20047;-59
2022/01/12 07:43:09;;;;;;;20.75;11.57;;;1.00;99.90;;;;;;5030222;28;20068;-59
2022/01/12 07:45:36;;;;;;;21.63;10.55;;;1.10;99.90;;;;;;5012094;28;20052;-57
2022/01/12 07:48:02;;;;;;;19.00;11.35;;;1.10;99.90;;;;;;5029493;28;20053;-57
2022/01/12 07:50:28;;;;;;;19.40;11.32;;;1.20;99.90;;;;;;5028847;28;20072;-55
2022/01/12 07:52:53;;;;;;;24.58;11.23;;;1.20;99.90;;;;;;5029088;28;20077;-58
2022/01/12 07:55:23;;;;;;;18.13;10.48;;;1.30;99.90;;;;;;5026484;28;20505;-59
2022/01/12 07:57:50;;;;;;;17.20;9.57;;;1.30;99.90;;;;;;5032193;28;20084;-58
2022/01/12 08:00:17;;;;;;;19.58;10.68;;;1.30;99.90;;;;;;5033202;28;20483;-57
2022/01/12 08:02:42;;;;;;;18.27;10.35;;;1.40;99.90;;;;;;5034141;28;20029;-59
2022/01/12 08:05:09;;;;;;;24.05;11.52;;;1.40;99.90;;;;;;5033939;28;20033;-59
2022/01/12 08:07:38;;;;;;;21.70;12.25;;;1.50;99.90;;;;;;5033002;28;20061;-58
2022/01/12 08:10:05;;;;;;;25.08;12.88;;;1.50;99.90;;;;;;5031522;28;20036;-58
2022/01/12 08:12:32;;;;;;;27.33;12.38;;;1.60;99.90;;;;;;5034120;28;20040;-59
2022/01/12 08:15:04;;;;;;;17.10;10.65;;;1.70;99.90;;;;;;5028747;28;20013;-59
2022/01/12 08:17:32;;;;;;;19.63;9.95;;;1.70;99.90;;;;;;5028570;28;20033;-59
2022/01/12 08:19:59;;;;;;;18.95;10.70;;;1.70;99.90;;;;;;5030458;28;20018;-58
2022/01/12 08:22:24;;;;;;;22.17;10.77;;;1.80;99.90;;;;;;5026525;28;20025;-59
2022/01/12 08:24:50;;;;;;;19.88;9.85;;;1.80;99.90;;;;;;4997553;28;20037;-62
2022/01/12 08:27:21;;;;;;;18.00;10.18;;;1.70;99.90;;;;;;5028125;28;20022;-59
2022/01/12 08:29:49;;;;;;;72.65;29.83;;;1.80;99.90;;;;;;5027078;28;20049;-60
2022/01/12 08:32:15;;;;;;;74.65;31.83;;;1.80;99.90;;;;;;5026535;28;20119;-59
2022/01/12 08:34:40;;;;;;;79.53;32.80;;;1.80;99.90;;;;;;5031405;28;20057;-59
2022/01/12 08:37:06;;;;;;;48.03;22.83;;;1.80;99.90;;;;;;5025360;28;20507;-60
2022/01/12 08:39:32;;;;;;;46.95;21.88;;;1.90;99.90;;;;;;5027662;28;20021;-58
2022/01/12 08:41:57;;;;;;;44.55;20.77;;;1.90;99.90;;;;;;5028591;28;20018;-60
2022/01/12 08:44:23;;;;;;;43.20;18.90;;;2.00;99.90;;;;;;5020952;28;20088;-59
2022/01/12 08:46:49;;;;;;;25.73;13.73;;;2.00;99.90;;;;;;5006920;28;20515;-59
2022/01/12 08:49:14;;;;;;;20.10;11.30;;;2.00;99.90;;;;;;5031365;28;20025;-60
2022/01/12 08:51:40;;;;;;;22.27;11.85;;;2.10;99.90;;;;;;5027176;28;20030;-59
2022/01/12 08:54:06;;;;;;;18.52;10.57;;;2.10;99.90;;;;;;5029406;28;20021;-60
2022/01/12 08:56:35;;;;;;;19.13;10.15;;;2.10;99.90;;;;;;5027135;28;20022;-60
2022/01/12 08:59:01;;;;;;;18.92;10.35;;;2.20;99.90;;;;;;5028988;28;20093;-59
2022/01/12 09:01:26;;;;;;;18.33;10.55;;;2.20;99.90;;;;;;5026917;28;20029;-59
2022/01/12 09:03:52;;;;;;;15.63;9.75;;;2.20;99.90;;;;;;5027073;28;20079;-60
2022/01/12 09:06:18;;;;;;;15.20;9.07;;;2.30;99.90;;;;;;4996360;28;20029;-59
2022/01/12 09:08:45;;;;;;;17.05;9.88;;;2.40;99.90;;;;;;5020364;28;20110;-60
2022/01/12 09:11:12;;;;;;;20.35;10.25;;;2.40;99.90;;;;;;5028562;28;20018;-60
2022/01/12 09:13:38;;;;;;;17.98;11.00;;;2.50;99.90;;;;;;5029947;28;20037;-59
2022/01/12 09:16:06;;;;;;;30.08;18.00;;;2.50;99.90;;;;;;5028443;28;20037;-61
2022/01/12 09:18:39;;;;;;;17.77;11.13;;;2.60;99.90;;;;;;5022526;28;20044;-60
2022/01/12 09:21:06;;;;;;;21.35;10.75;;;2.60;99.90;;;;;;5029849;28;20041;-60
2022/01/12 09:23:32;;;;;;;18.73;10.25;;;2.70;99.90;;;;;;5029995;28;20108;-58
2022/01/12 09:25:58;;;;;;;26.55;11.07;;;2.80;99.90;;;;;;5031027;28;20029;-60
2022/01/12 09:28:24;;;;;;;17.52;9.82;;;2.90;99.90;;;;;;5027701;28;20156;-59
2022/01/12 09:30:51;;;;;;;19.27;9.95;;;3.00;99.90;;;;;;5025773;28;20506;-60
2022/01/12 09:33:17;;;;;;;19.40;11.55;;;3.20;99.90;;;;;;5030735;28;20100;-60
2022/01/12 09:35:45;;;;;;;13.68;8.90;;;3.20;99.90;;;;;;5027755;28;20029;-60
2022/01/12 09:38:11;;;;;;;14.70;9.20;;;3.20;99.90;;;;;;5021304;28;20029;-60
2022/01/12 09:40:39;;;;;;;18.02;11.00;;;3.30;99.90;;;;;;5028473;28;20033;-59
2022/01/12 09:43:05;;;;;;;15.32;9.48;;;3.30;99.90;;;;;;5027218;28;20499;-59
2022/01/12 09:45:32;;;;;;;14.15;9.45;;;3.30;99.90;;;;;;5029036;28;20025;-59
2022/01/12 09:47:58;;;;;;;18.38;11.25;;;3.30;99.90;;;;;;5024153;28;20395;-59
2022/01/12 09:50:25;;;;;;;14.48;8.05;;;3.30;99.90;;;;;;5025350;28;20036;-59
2022/01/12 09:52:51;;;;;;;16.60;9.82;;;3.30;99.90;;;;;;5030110;28;20033;-59
2022/01/12 09:55:18;;;;;;;20.10;10.93;;;3.30;99.90;;;;;;5029242;28;20487;-59
2022/01/12 09:57:44;;;;;;;15.40;9.13;;;3.20;99.90;;;;;;5029796;28;20021;-58
2022/01/12 10:00:11;;;;;;;20.33;11.73;;;3.30;99.90;;;;;;5027535;28;20022;-58
2022/01/12 10:02:37;;;;;;;16.50;9.35;;;3.30;99.90;;;;;;5025063;28;20026;-60
2022/01/12 10:05:05;;;;;;;14.98;9.18;;;3.20;99.90;;;;;;5026316;28;20021;-60
2022/01/12 10:07:31;;;;;;;64.20;27.60;;;3.20;99.90;;;;;;5028907;28;20104;-60
2022/01/12 10:10:06;;;;;;;109.93;36.35;;;3.10;99.90;;;;;;5024177;28;20153;-58
2022/01/12 10:12:33;;;;;;;36.53;16.55;;;3.10;99.90;;;;;;5027916;28;20033;-61
2022/01/12 10:15:01;;;;;;;32.08;14.98;;;3.20;99.90;;;;;;5024902;28;20033;-58
2022/01/12 10:17:44;;;;;;;31.70;15.80;;;3.20;99.90;;;;;;5024701;28;20028;-59
2022/01/12 10:20:23;;;;;;;16.70;9.02;;;3.20;99.90;;;;;;5020556;28;20380;-60
2022/01/12 10:23:11;;;;;;;16.58;10.23;;;3.20;99.90;;;;;;5025229;28;20033;-60
2022/01/12 10:25:37;;;;;;;31.67;18.95;;;3.20;99.90;;;;;;5025224;28;20508;-59
2022/01/12 10:28:21;;;;;;;23.92;12.55;;;3.30;99.90;;;;;;5029347;28;20483;-60
2022/01/12 10:30:54;;;;;;;25.63;15.23;;;3.20;99.90;;;;;;5025536;28;20021;-59
2022/01/12 10:33:24;;;;;;;22.63;12.73;;;3.20;99.90;;;;;;5024206;28;20117;-60
2022/01/12 10:35:55;;;;;;;20.92;13.07;;;3.10;99.90;;;;;;5026331;28;20511;-60
2022/01/12 10:38:24;;;;;;;22.73;12.93;;;3.10;99.90;;;;;;5026405;28;20048;-59
2022/01/12 10:40:56;;;;;;;17.83;10.60;;;3.10;99.90;;;;;;5028390;28;20032;-59
2022/01/12 10:43:30;;;;;;;21.42;11.95;;;3.20;99.90;;;;;;5029425;28;20026;-59
2022/01/12 10:45:57;;;;;;;19.65;9.85;;;3.20;99.90;;;;;;5027765;28;20049;-60
2022/01/12 10:48:25;;;;;;;15.70;9.90;;;3.20;99.90;;;;;;5029562;28;20491;-59
2022/01/12 10:50:59;;;;;;;23.75;12.65;;;3.10;99.90;;;;;;5030228;28;20042;-59
2022/01/12 10:53:36;;;;;;;17.42;10.27;;;3.20;99.90;;;;;;5028870;28;20057;-58
2022/01/12 10:56:03;;;;;;;15.10;9.77;;;3.10;99.90;;;;;;5029589;28;20041;-59
2022/01/12 10:58:29;;;;;;;20.17;11.00;;;3.30;99.90;;;;;;5024219;28;20037;-60
2022/01/12 11:00:55;;;;;;;21.75;11.23;;;3.40;99.90;;;;;;5025793;28;20100;-59
2022/01/12 11:03:22;;;;;;;20.10;11.63;;;3.40;99.90;;;;;;5029083;28;20048;-60
2022/01/12 11:05:50;;;;;;;18.42;9.32;;;3.40;99.90;;;;;;5029724;28;20122;-60
2022/01/12 11:08:17;;;;;;;17.27;10.18;;;3.30;99.90;;;;;;5025786;28;20037;-59
2022/01/12 11:10:42;;;;;;;26.83;13.85;;;3.30;99.90;;;;;;5021401;28;20026;-59
2022/01/12 11:13:08;;;;;;;26.63;14.18;;;3.30;99.90;;;;;;5028755;28;20041;-59
2022/01/12 11:15:34;;;;;;;19.15;10.52;;;3.30;99.90;;;;;;5028033;28;20395;-60
2022/01/12 11:17:59;;;;;;;20.08;11.93;;;3.30;99.90;;;;;;5029868;28;20041;-60
2022/01/12 11:20:33;;;;;;;23.33;10.77;;;3.30;99.90;;;;;;5029585;28;20021;-59
2022/01/12 11:23:03;;;;;;;35.43;15.50;;;3.30;99.90;;;;;;5027907;28;20022;-58
2022/01/12 11:25:39;;;;;;;76.30;32.20;;;3.30;99.90;;;;;;5026690;28;20270;-58
2022/01/12 11:28:11;;;;;;;39.88;18.33;;;3.30;99.90;;;;;;5026298;28;20028;-60
2022/01/12 11:30:40;;;;;;;19.90;11.98;;;3.30;99.90;;;;;;5027088;28;20040;-59
2022/01/12 11:33:11;;;;;;;17.33;9.63;;;3.30;99.90;;;;;;5008362;28;20519;-60
2022/01/12 11:35:56;;;;;;;17.58;9.85;;;3.30;99.90;;;;;;5022153;28;20099;-59
2022/01/12 11:38:28;;;;;;;23.90;11.05;;;3.30;99.90;;;;;;5029411;28;20526;-60
2022/01/12 11:40:56;;;;;;;41.13;23.95;;;3.40;99.90;;;;;;5044711;28;20033;-59
2022/01/12 11:43:25;;;;;;;19.55;11.00;;;3.40;99.90;;;;;;5045226;28;20404;-59
2022/01/12 11:46:09;;;;;;;20.38;11.32;;;3.50;99.90;;;;;;5026851;28;20025;-60
2022/01/12 11:48:53;;;;;;;17.33;9.38;;;3.50;99.90;;;;;;5026429;28;20036;-60
2022/01/12 11:51:32;;;;;;;14.57;9.80;;;3.50;99.90;;;;;;5014559;28;20029;-60
2022/01/12 11:54:07;;;;;;;15.15;8.95;;;3.50;99.90;;;;;;5020873;28;20379;-60
2022/01/12 11:56:33;;;;;;;14.80;8.90;;;3.50;99.90;;;;;;5022046;28;20040;-59
2022/01/12 11:59:10;;;;;;;17.55;9.10;;;3.50;99.90;;;;;;5028648;28;20029;-59
2022/01/12 12:02:07;;;;;;;16.33;9.25;;;3.50;99.90;;;;;;5021444;28;20029;-58
2022/01/12 12:04:33;;;;;;;15.15;9.32;;;3.50;99.90;;;;;;5030426;28;20037;-59
2022/01/12 12:07:14;;;;;;;18.05;9.25;;;3.40;99.90;;;;;;5026910;28;20086;-59
2022/01/12 12:09:45;;;;;;;18.35;10.13;;;3.50;99.90;;;;;;5026717;28;20034;-58
2022/01/12 12:12:12;;;;;;;16.27;9.23;;;3.40;99.90;;;;;;5026421;28;20030;-58
2022/01/12 12:14:37;;;;;;;20.60;10.13;;;3.40;99.90;;;;;;5022223;28;20068;-60
2022/01/12 12:17:04;;;;;;;18.95;9.75;;;3.40;99.90;;;;;;5025412;28;20026;-60
2022/01/12 12:19:30;;;;;;;14.82;8.70;;;3.50;99.90;;;;;;5024073;28;20030;-55
2022/01/12 12:21:55;;;;;;;13.55;8.02;;;3.40;99.90;;;;;;5024946;28;20104;-60
2022/01/12 12:24:21;;;;;;;15.38;8.95;;;3.40;99.90;;;;;;5019466;28;20124;-59
2022/01/12 12:26:54;;;;;;;15.93;9.48;;;3.50;99.90;;;;;;5026586;28;21956;-60
2022/01/12 12:29:26;;;;;;;15.45;8.77;;;3.40;99.90;;;;;;5022266;28;20129;-60
2022/01/12 12:31:53;;;;;;;16.83;10.07;;;3.50;99.90;;;;;;5028489;28;20415;-59
2022/01/12 12:34:23;;;;;;;17.25;10.23;;;3.50;99.90;;;;;;5021660;28;20452;-59
2022/01/12 12:37:11;;;;;;;17.02;9.63;;;3.50;99.90;;;;;;5027304;28;20024;-60
2022/01/12 12:39:41;;;;;;;17.73;10.05;;;3.60;99.90;;;;;;5023213;28;20395;-60
2022/01/12 12:42:19;;;;;;;22.55;11.25;;;3.60;99.90;;;;;;5012623;28;20108;-60
2022/01/12 12:44:47;;;;;;;26.15;10.45;;;3.70;99.90;;;;;;5026169;28;20121;-58
2022/01/12 12:47:18;;;;;;;21.75;10.80;;;3.70;99.90;;;;;;5029812;28;20037;-59
2022/01/12 12:49:56;;;;;;;24.00;11.55;;;3.70;99.90;;;;;;5020918;28;20509;-59
2022/01/12 12:52:28;;;;;;;31.00;12.32;;;3.60;99.90;;;;;;5043110;28;20065;-59
2022/01/12 12:54:56;;;;;;;33.50;14.68;;;3.60;99.90;;;;;;5042451;28;20053;-59
2022/01/12 12:57:22;;;;;;;28.88;12.90;;;3.70;99.90;;;;;;5028653;28;20144;-59
2022/01/12 13:00:11;;;;;;;23.50;11.70;;;3.70;99.90;;;;;;5028207;28;20025;-60
2022/01/12 13:02:47;;;;;;;31.90;13.40;;;3.70;99.90;;;;;;5026408;28;20025;-61
2022/01/12 13:05:16;;;;;;;24.98;12.75;;;3.70;99.90;;;;;;5030360;28;20087;-60
2022/01/12 13:07:44;;;;;;;22.95;12.10;;;3.80;99.90;;;;;;5029783;28;20083;-59
2022/01/12 13:10:14;;;;;;;30.50;13.40;;;3.70;99.90;;;;;;5031182;28;20026;-59
2022/01/12 13:12:45;;;;;;;31.13;13.57;;;3.70;99.90;;;;;;5030198;28;20059;-60
2022/01/12 13:15:24;;;;;;;36.08;18.75;;;3.70;99.90;;;;;;5024646;28;20022;-60
2022/01/12 13:18:00;;;;;;;35.63;16.48;;;3.70;99.90;;;;;;5030351;28;20503;-59
2022/01/12 13:23:04;;;;;;;32.90;14.85;;;3.70;99.90;;;;;;5030380;28;20026;-60
2022/01/12 13:25:31;;;;;;;36.42;17.35;;;3.80;99.90;;;;;;5030135;28;20049;-59
2022/01/12 13:27:58;;;;;;;29.63;12.57;;;3.80;99.90;;;;;;5030372;28;20160;-59
2022/01/12 13:30:31;;;;;;;39.80;16.10;;;3.80;99.90;;;;;;5027445;28;20030;-59
2022/01/12 13:32:59;;;;;;;27.67;13.73;;;3.80;99.90;;;;;;5025528;28;20496;-59
2022/01/12 13:35:35;;;;;;;35.83;17.35;;;3.80;99.90;;;;;;5030950;28;21009;-58
2022/01/12 13:38:05;;;;;;;37.10;15.40;;;3.80;99.90;;;;;;5027770;28;20113;-60
2022/01/12 13:40:41;;;;;;;33.22;14.40;;;3.70;99.90;;;;;;5025179;28;20116;-60
2022/01/12 13:43:07;;;;;;;31.67;14.10;;;3.70;99.90;;;;;;5022409;28;20555;-59
2022/01/12 13:45:40;;;;;;;27.48;13.77;;;3.80;99.90;;;;;;5029206;28;20108;-60
2022/01/12 13:48:16;;;;;;;44.40;17.20;;;3.70;99.90;;;;;;5023711;28;20135;-57
2022/01/12 13:50:44;;;;;;;41.58;16.10;;;3.70;99.90;;;;;;5028182;28;20399;-60
2022/01/12 13:53:10;;;;;;;37.88;16.60;;;3.60;99.90;;;;;;5029338;28;20025;-60
2022/01/12 13:55:47;;;;;;;39.30;16.88;;;3.60;99.90;;;;;;5030846;28;21252;-60
2022/01/12 13:58:13;;;;;;;33.13;15.00;;;3.60;99.90;;;;;;5029747;28;20439;-59
2022/01/12 14:00:39;;;;;;;43.10;14.80;;;3.60;99.90;;;;;;5030001;28;20036;-60
2022/01/12 14:03:22;;;;;;;35.35;15.85;;;3.60;99.90;;;;;;5029338;28;20041;-58
2022/01/12 14:05:52;;;;;;;41.70;17.83;;;3.60;99.90;;;;;;5029197;28;20033;-58